Terminal Aerodrome Forecast
Issued by NWS

Home | Current Version | Previous Version | Text Only | Print | Product List | Glossary On
Versions: 1 2 3 4 5 6 7 8 9 10 11 12 13 14 15 16 17 18 19 20 21 22 23 24 25 26 27
686
FTUS46 KMTR 052055 AAA
TAFSFO
TAF AMD
KSFO 052055Z 0521/0624 23013KT P6SM VCSH SCT030 SCT040 BKN060
     FM060400 24009KT P6SM VCSH SCT020 BKN030 OVC050
     FM060700 24007KT P6SM VCSH BKN018 BKN025 OVC040
     FM061400 VRB06KT P6SM VCSH SCT020 BKN030 OVC060
     FM062100 21008KT P6SM VCSH SCT030 BKN060=

USA.gov is the U.S. government's official web portal to all federal, state and local government web resources and services.